Time;durP1;ratioP1;P1;durP2;ratioP2;P2;SDS_P1;SDS_P2;PMS_P1;PMS_P2;Temp;Humidity;BMP_temperature;BMP_pressure;BME280_temperature;BME280_humidity;BME280_pressure;Samples;Min_cycle;Max_cycle;Signal;HPM_P1;HPM_P2
2021/04/06 00:01:40;;;;;;;7.18;4.25;;;4.80;58.00;;;;;;6282771;22;19999;-90
2021/04/06 00:04:09;;;;;;;5.38;3.70;;;4.70;57.90;;;;;;6282118;22;20323;-91
2021/04/06 00:06:39;;;;;;;6.50;4.32;;;4.80;57.90;;;;;;6282195;22;19999;-91
2021/04/06 00:09:08;;;;;;;6.00;3.95;;;4.70;58.00;;;;;;6315170;22;20052;-90
2021/04/06 00:11:36;;;;;;;6.50;3.97;;;4.70;58.30;;;;;;6292122;22;19999;-91
2021/04/06 00:14:04;;;;;;;7.07;4.63;;;4.70;58.10;;;;;;6293129;22;20006;-90
2021/04/06 00:16:32;;;;;;;6.93;4.65;;;4.70;58.10;;;;;;6293149;22;20057;-91
2021/04/06 00:18:59;;;;;;;6.38;4.45;;;4.70;58.20;;;;;;6314615;22;19995;-91
2021/04/06 00:21:25;;;;;;;6.55;5.30;;;4.70;58.30;;;;;;6282054;22;20078;-91
2021/04/06 00:23:52;;;;;;;9.45;4.88;;;4.70;58.70;;;;;;6309462;22;20311;-91
2021/04/06 00:26:18;;;;;;;8.32;6.15;;;4.70;58.60;;;;;;6284229;22;19992;-91
2021/04/06 00:28:45;;;;;;;12.55;7.97;;;4.60;58.60;;;;;;6282065;22;20010;-90
2021/04/06 00:31:12;;;;;;;14.93;8.90;;;4.60;58.70;;;;;;6309312;22;20046;-91
2021/04/06 00:33:43;;;;;;;11.85;7.55;;;4.60;59.00;;;;;;6282330;22;19996;-90
2021/04/06 00:36:10;;;;;;;11.43;8.38;;;4.60;59.10;;;;;;6282651;22;20003;-91
2021/04/06 00:38:41;;;;;;;10.80;7.10;;;4.50;59.20;;;;;;6283882;22;20000;-91
2021/04/06 00:41:11;;;;;;;11.57;7.07;;;4.50;59.50;;;;;;6287499;22;20004;-90
2021/04/06 00:43:43;;;;;;;11.00;6.78;;;4.40;59.60;;;;;;6288445;22;19996;-90
2021/04/06 00:46:15;;;;;;;10.48;6.35;;;4.40;59.90;;;;;;6285773;22;20022;-89
2021/04/06 00:48:45;;;;;;;12.10;7.35;;;4.30;60.00;;;;;;6290076;22;20030;-89
2021/04/06 00:51:19;;;;;;;10.35;6.68;;;4.30;60.50;;;;;;6314720;22;20484;-90
2021/04/06 00:53:57;;;;;;;10.43;7.50;;;4.30;60.80;;;;;;6309668;22;19996;-90
2021/04/06 00:56:38;;;;;;;10.82;6.65;;;4.20;61.10;;;;;;6281936;22;20108;-90
2021/04/06 00:59:09;;;;;;;10.52;6.40;;;4.20;61.20;;;;;;6309307;22;20400;-91
2021/04/06 01:01:37;;;;;;;11.50;6.75;;;4.20;61.60;;;;;;6282341;22;20010;-90
2021/04/06 01:04:06;;;;;;;10.77;6.40;;;4.10;62.70;;;;;;6277498;22;20016;-90
2021/04/06 01:06:56;;;;;;;11.13;6.43;;;4.10;62.20;;;;;;6284380;22;20000;-90
2021/04/06 01:09:33;;;;;;;8.60;5.82;;;4.10;63.00;;;;;;6290313;22;20000;-90
2021/04/06 01:12:01;;;;;;;8.88;6.28;;;4.00;63.00;;;;;;6294057;22;20046;-91
2021/04/06 01:14:27;;;;;;;8.43;6.10;;;4.00;62.90;;;;;;6290535;22;20450;-89
2021/04/06 01:16:54;;;;;;;9.98;6.43;;;4.00;63.60;;;;;;6289921;22;20451;-90
2021/04/06 01:19:21;;;;;;;9.38;6.03;;;3.90;64.20;;;;;;6287957;22;20006;-90
2021/04/06 01:21:47;;;;;;;10.27;6.55;;;3.90;64.10;;;;;;6278397;22;20000;-90
2021/04/06 01:24:14;;;;;;;8.70;6.25;;;3.90;64.60;;;;;;6278461;22;20008;-90
2021/04/06 01:26:39;;;;;;;7.00;5.20;;;3.90;64.40;;;;;;6278677;22;20484;-90
2021/04/06 01:29:05;;;;;;;10.93;6.82;;;3.80;64.50;;;;;;6279153;22;20000;-91
2021/04/06 01:31:33;;;;;;;9.95;6.60;;;3.80;64.80;;;;;;6278382;22;20078;-91
2021/04/06 01:34:02;;;;;;;10.02;6.22;;;3.80;65.30;;;;;;6278576;22;20000;-91
2021/04/06 01:36:28;;;;;;;10.05;6.75;;;3.80;65.90;;;;;;6278209;22;20004;-91
2021/04/06 01:38:54;;;;;;;9.20;6.82;;;3.80;65.80;;;;;;6304188;22;20007;-91
2021/04/06 01:41:20;;;;;;;10.32;6.38;;;3.70;66.10;;;;;;6278045;22;20038;-91
2021/04/06 01:43:50;;;;;;;10.88;6.57;;;3.70;66.60;;;;;;6279275;22;20000;-91
2021/04/06 01:46:18;;;;;;;10.55;7.13;;;3.70;66.60;;;;;;6291410;22;20007;-91
2021/04/06 01:48:46;;;;;;;12.50;7.75;;;3.70;67.10;;;;;;6293063;22;20016;-91
2021/04/06 01:51:13;;;;;;;11.32;7.57;;;3.70;67.10;;;;;;6291619;22;20053;-90
2021/04/06 01:53:41;;;;;;;14.52;8.43;;;3.60;67.00;;;;;;6292854;22;19992;-90
2021/04/06 01:56:15;;;;;;;16.67;9.38;;;3.60;67.50;;;;;;6281319;22;20007;-91
2021/04/06 01:58:47;;;;;;;16.67;9.63;;;3.60;68.50;;;;;;6278626;22;20007;-91
2021/04/06 02:03:57;;;;;;;14.93;8.75;;;3.60;68.30;;;;;;6281118;22;20055;-90
2021/04/06 02:06:27;;;;;;;11.50;7.72;;;3.50;68.40;;;;;;6283190;22;20434;-91
2021/04/06 02:08:54;;;;;;;13.45;8.52;;;3.50;68.40;;;;;;6283835;22;20003;-91
2021/04/06 02:11:27;;;;;;;10.23;6.88;;;3.40;68.50;;;;;;6283019;22;20079;-91
2021/04/06 02:14:10;;;;;;;13.10;7.38;;;3.40;68.90;;;;;;6310334;22;19999;-91
2021/04/06 02:16:55;;;;;;;14.73;8.02;;;3.40;69.20;;;;;;6310307;22;20003;-91
2021/04/06 02:19:42;;;;;;;13.45;7.82;;;3.40;69.60;;;;;;6283527;22;20461;-91
2021/04/06 02:22:14;;;;;;;13.18;7.88;;;3.40;69.60;;;;;;6286883;22;20038;-91
2021/04/06 02:24:49;;;;;;;16.08;9.43;;;3.30;70.10;;;;;;6289629;22;20007;-90
2021/04/06 02:27:26;;;;;;;14.30;8.52;;;3.30;69.80;;;;;;6286091;22;20411;-91
2021/04/06 02:29:58;;;;;;;17.40;9.18;;;3.30;70.20;;;;;;6283506;22;19999;-91
2021/04/06 02:32:26;;;;;;;16.95;9.95;;;3.30;70.50;;;;;;6283217;22;20296;-91
2021/04/06 02:34:58;;;;;;;15.48;9.57;;;3.30;70.60;;;;;;6282463;22;20010;-90
2021/04/06 02:37:30;;;;;;;12.77;8.23;;;3.30;70.90;;;;;;6282882;22;20014;-90
2021/04/06 02:40:03;;;;;;;12.80;8.20;;;3.30;70.90;;;;;;6283204;22;20031;-90
2021/04/06 02:42:34;;;;;;;11.80;8.55;;;3.30;71.00;;;;;;6282931;22;20037;-90
2021/04/06 02:45:07;;;;;;;13.65;8.23;;;3.20;71.20;;;;;;6282998;22;19999;-91
2021/04/06 02:47:35;;;;;;;11.32;8.20;;;3.20;71.50;;;;;;6310130;22;20006;-91
2021/04/06 02:50:01;;;;;;;12.65;9.10;;;3.20;71.60;;;;;;6282824;22;20006;-90
2021/04/06 02:52:27;;;;;;;11.77;8.27;;;3.20;71.80;;;;;;6309911;22;19999;-91
2021/04/06 02:54:53;;;;;;;12.25;7.72;;;3.20;71.90;;;;;;6282608;22;20004;-91
2021/04/06 02:57:23;;;;;;;11.32;8.23;;;3.20;72.30;;;;;;6282684;22;20011;-91
2021/04/06 02:59:50;;;;;;;10.68;8.27;;;3.20;72.30;;;;;;6309852;22;19999;-91
2021/04/06 03:02:16;;;;;;;12.63;9.27;;;3.20;72.10;;;;;;6283796;22;20004;-90
2021/04/06 03:04:46;;;;;;;12.73;8.68;;;3.20;72.40;;;;;;6286520;22;20097;-91
2021/04/06 03:07:23;;;;;;;13.82;10.00;;;3.20;72.40;;;;;;6282594;22;20007;-91
2021/04/06 03:09:50;;;;;;;14.18;9.75;;;3.20;72.30;;;;;;6285424;22;20006;-91
2021/04/06 03:12:17;;;;;;;18.20;11.15;;;3.20;72.50;;;;;;6283142;22;20030;-91
2021/04/06 03:14:46;;;;;;;21.15;11.63;;;3.20;72.90;;;;;;6280417;22;19996;-90
2021/04/06 03:17:12;;;;;;;21.58;12.57;;;3.20;72.90;;;;;;6279292;22;20008;-90
2021/04/06 03:19:38;;;;;;;24.55;13.45;;;3.20;73.00;;;;;;6303452;22;20067;-90
2021/04/06 03:22:06;;;;;;;23.40;12.93;;;3.10;73.00;;;;;;6282532;22;20006;-90
2021/04/06 03:24:32;;;;;;;31.80;16.15;;;3.10;72.90;;;;;;6282855;22;20010;-90
2021/04/06 03:27:02;;;;;;;20.55;11.63;;;3.10;73.30;;;;;;6313629;22;20004;-91
2021/04/06 03:29:29;;;;;;;28.60;14.80;;;3.20;73.40;;;;;;6287111;22;20010;-90
2021/04/06 03:31:56;;;;;;;25.35;14.55;;;3.10;74.00;;;;;;6282072;22;20000;-90
2021/04/06 03:34:29;;;;;;;24.02;15.35;;;3.20;73.90;;;;;;6277727;22;20082;-91
2021/04/06 03:36:55;;;;;;;21.42;13.05;;;3.20;73.80;;;;;;6303056;22;20011;-90
2021/04/06 03:39:20;;;;;;;20.98;13.25;;;3.20;74.10;;;;;;6277543;22;20326;-91
2021/04/06 03:41:46;;;;;;;16.67;11.57;;;3.20;74.50;;;;;;6277380;22;19996;-91
2021/04/06 03:44:13;;;;;;;15.27;11.10;;;3.20;74.30;;;;;;6278712;22;20074;-91
2021/04/06 03:46:42;;;;;;;16.70;10.82;;;3.30;74.60;;;;;;6277424;22;20391;-91
2021/04/06 03:49:22;;;;;;;15.68;10.10;;;3.30;74.60;;;;;;6277060;22;19996;-91
2021/04/06 03:51:48;;;;;;;16.05;10.50;;;3.40;75.20;;;;;;6277168;22;20003;-90
2021/04/06 03:54:38;;;;;;;17.25;9.95;;;3.40;75.00;;;;;;6278471;22;19991;-91
2021/04/06 03:57:35;;;;;;;14.85;8.93;;;3.50;75.30;;;;;;6278387;22;20011;-91
2021/04/06 04:00:03;;;;;;;16.23;10.02;;;3.50;75.00;;;;;;6268455;22;20000;-90
2021/04/06 04:02:29;;;;;;;15.38;9.55;;;3.60;75.10;;;;;;6277422;22;20378;-90
2021/04/06 04:04:56;;;;;;;14.13;9.32;;;3.60;75.30;;;;;;6302648;22;20081;-90
2021/04/06 04:07:21;;;;;;;18.35;10.70;;;3.70;75.20;;;;;;6303423;22;20403;-91
2021/04/06 04:09:47;;;;;;;16.65;10.23;;;3.70;75.50;;;;;;6277003;22;19999;-91
2021/04/06 04:12:13;;;;;;;15.90;10.38;;;3.80;75.60;;;;;;6302935;22;20003;-91
2021/04/06 04:14:39;;;;;;;17.83;10.70;;;3.90;75.80;;;;;;6277782;22;20308;-91
2021/04/06 04:17:06;;;;;;;16.02;10.00;;;3.90;75.80;;;;;;6277042;22;20008;-91
2021/04/06 04:19:33;;;;;;;22.40;11.23;;;4.00;75.80;;;;;;6277454;22;20000;-90
2021/04/06 04:21:58;;;;;;;16.88;10.75;;;4.00;76.10;;;;;;6277627;22;20000;-90
2021/04/06 04:24:24;;;;;;;16.15;11.30;;;4.00;76.00;;;;;;6278721;22;20007;-91
2021/04/06 04:26:50;;;;;;;20.83;12.50;;;4.10;76.30;;;;;;6278379;22;20415;-91
2021/04/06 04:29:16;;;;;;;16.08;11.07;;;4.20;76.40;;;;;;6277363;22;20007;-90
2021/04/06 04:31:46;;;;;;;13.77;10.48;;;4.20;76.40;;;;;;6278139;22;20004;-90
2021/04/06 04:34:12;;;;;;;14.98;10.80;;;4.30;76.40;;;;;;6278241;22;20075;-91
2021/04/06 04:36:38;;;;;;;12.05;9.88;;;4.40;76.60;;;;;;6276116;22;20023;-91
2021/04/06 04:39:05;;;;;;;11.27;9.35;;;4.40;76.40;;;;;;6276854;22;20054;-90
2021/04/06 04:41:30;;;;;;;18.50;9.25;;;4.60;76.30;;;;;;6276768;22;20456;-91
2021/04/06 04:43:56;;;;;;;15.02;9.55;;;4.60;76.70;;;;;;6302447;22;20094;-91
2021/04/06 04:46:22;;;;;;;12.35;8.73;;;4.70;76.40;;;;;;6302193;22;20011;-90
2021/04/06 04:48:48;;;;;;;16.10;9.40;;;4.80;76.30;;;;;;6277255;22;20004;-90
2021/04/06 04:51:14;;;;;;;13.02;8.75;;;4.80;76.40;;;;;;6277131;22;20008;-91
2021/04/06 04:53:40;;;;;;;18.25;10.57;;;4.90;76.40;;;;;;6276812;22;19999;-90
2021/04/06 04:56:05;;;;;;;13.75;10.30;;;5.00;76.50;;;;;;6303114;22;20003;-91
2021/04/06 04:58:31;;;;;;;14.48;9.00;;;5.10;76.40;;;;;;6307066;22;20020;-91
2021/04/06 05:00:57;;;;;;;14.25;10.50;;;5.10;76.10;;;;;;6315605;22;20054;-91
2021/04/06 05:03:23;;;;;;;13.75;8.82;;;5.20;76.20;;;;;;6318528;22;20059;-90
2021/04/06 05:05:49;;;;;;;11.10;8.35;;;5.40;76.10;;;;;;6325050;22;20007;-91
2021/04/06 05:08:15;;;;;;;11.43;8.95;;;5.50;75.90;;;;;;6332577;22;20039;-90
2021/04/06 05:10:40;;;;;;;12.80;9.50;;;5.60;75.90;;;;;;6335780;22;19994;-90
2021/04/06 05:13:06;;;;;;;12.85;9.25;;;5.70;75.70;;;;;;6308277;22;20003;-90
2021/04/06 05:15:33;;;;;;;14.85;10.80;;;5.80;75.50;;;;;;6326299;22;20000;-90
2021/04/06 05:17:59;;;;;;;15.30;10.65;;;5.90;75.30;;;;;;6295917;22;20098;-91
2021/04/06 05:20:25;;;;;;;14.77;10.52;;;6.00;75.20;;;;;;6290372;22;20002;-90
2021/04/06 05:22:51;;;;;;;18.60;10.95;;;6.10;75.00;;;;;;6314587;22;19999;-91
2021/04/06 05:25:17;;;;;;;13.57;10.30;;;6.30;75.00;;;;;;6284851;22;20007;-91
2021/04/06 05:27:43;;;;;;;12.80;10.10;;;6.40;74.80;;;;;;6310693;22;20432;-91
2021/04/06 05:30:09;;;;;;;13.18;9.90;;;6.60;74.60;;;;;;6286139;22;20010;-90
2021/04/06 05:32:35;;;;;;;17.30;10.45;;;6.70;74.00;;;;;;6312011;22;19995;-90
2021/04/06 05:35:01;;;;;;;12.55;10.00;;;6.80;73.60;;;;;;6310271;22;20296;-91
2021/04/06 05:37:27;;;;;;;21.67;9.75;;;7.00;73.30;;;;;;6309872;22;20004;-91
2021/04/06 05:39:52;;;;;;;11.57;8.45;;;7.10;72.90;;;;;;6311635;22;20014;-91
2021/04/06 05:42:18;;;;;;;11.32;8.38;;;7.10;72.70;;;;;;6311978;22;20023;-91
2021/04/06 05:44:45;;;;;;;12.48;9.00;;;7.30;72.50;;;;;;6284892;22;19999;-91
2021/04/06 05:47:32;;;;;;;13.27;8.60;;;7.40;72.10;;;;;;6284277;22;20019;-91
2021/04/06 05:49:58;;;;;;;12.15;8.88;;;7.50;71.90;;;;;;6284221;22;20069;-91
2021/04/06 05:52:24;;;;;;;13.38;8.82;;;7.70;71.60;;;;;;6284205;22;20000;-91
2021/04/06 05:54:50;;;;;;;12.15;8.57;;;7.80;71.00;;;;;;6283901;22;20048;-91
2021/04/06 05:57:16;;;;;;;10.60;9.20;;;7.90;70.80;;;;;;6284542;22;20330;-91
2021/04/06 05:59:42;;;;;;;11.45;8.70;;;8.00;70.30;;;;;;6309510;22;20027;-91
2021/04/06 06:02:10;;;;;;;11.15;8.73;;;8.00;70.20;;;;;;6285292;22;20007;-91
2021/04/06 06:04:36;;;;;;;10.63;7.75;;;8.10;70.10;;;;;;6314207;22;20018;-91
2021/04/06 06:07:02;;;;;;;8.95;7.65;;;8.20;70.00;;;;;;6286097;22;20060;-91
2021/04/06 06:09:29;;;;;;;9.32;7.53;;;8.40;69.80;;;;;;6288872;22;20022;-90
2021/04/06 06:11:55;;;;;;;12.48;8.10;;;8.50;69.00;;;;;;6289637;22;20369;-91
2021/04/06 06:14:32;;;;;;;11.90;8.10;;;8.60;68.60;;;;;;6285271;22;19999;-90
2021/04/06 06:17:29;;;;;;;11.43;8.10;;;8.60;68.30;;;;;;6284049;22;20014;-91
2021/04/06 06:19:59;;;;;;;10.07;8.00;;;8.60;68.20;;;;;;6310815;22;19999;-91
2021/04/06 06:22:31;;;;;;;9.45;7.47;;;8.70;68.20;;;;;;6283307;22;20003;-91
2021/04/06 06:25:13;;;;;;;11.23;7.75;;;8.80;68.00;;;;;;6283425;22;19999;-91
2021/04/06 06:27:44;;;;;;;9.18;7.00;;;8.90;67.80;;;;;;6283850;22;20013;-91
2021/04/06 06:30:37;;;;;;;11.02;7.40;;;9.00;67.40;;;;;;6284003;22;20074;-91
2021/04/06 06:33:30;;;;;;;12.02;6.47;;;9.10;67.00;;;;;;6310450;22;20009;-91
2021/04/06 06:35:58;;;;;;;8.88;6.82;;;9.30;67.10;;;;;;6283332;22;20070;-90
2021/04/06 06:38:30;;;;;;;9.80;7.00;;;9.40;66.70;;;;;;6283003;22;20015;-91
2021/04/06 06:41:08;;;;;;;10.57;7.00;;;9.60;66.60;;;;;;6282714;22;20003;-91
2021/04/06 06:43:34;;;;;;;7.53;6.25;;;9.70;66.20;;;;;;6283323;22;20022;-91
2021/04/06 06:46:00;;;;;;;8.35;5.85;;;9.90;66.10;;;;;;6310239;22;19991;-90
2021/04/06 06:48:27;;;;;;;7.38;6.20;;;10.00;65.70;;;;;;6282839;22;20011;-90
2021/04/06 06:50:53;;;;;;;8.15;6.28;;;10.20;65.30;;;;;;6283007;22;20107;-91
2021/04/06 06:53:41;;;;;;;9.60;6.38;;;10.30;64.70;;;;;;6310519;22;19995;-91
2021/04/06 06:56:11;;;;;;;9.15;6.78;;;10.30;64.50;;;;;;6283551;22;20299;-91
2021/04/06 06:58:42;;;;;;;10.52;7.00;;;10.30;64.10;;;;;;6293490;22;20073;-92
2021/04/06 07:01:32;;;;;;;10.45;7.50;;;10.30;64.30;;;;;;6303738;22;20003;-91
2021/04/06 07:04:08;;;;;;;7.82;6.63;;;10.30;64.40;;;;;;6330946;22;20411;-91
2021/04/06 07:06:36;;;;;;;12.27;7.13;;;10.40;65.00;;;;;;6305974;22;20018;-90
2021/04/06 07:09:25;;;;;;;8.35;6.93;;;10.50;64.30;;;;;;6333671;22;20011;-92
2021/04/06 07:11:59;;;;;;;9.05;6.95;;;10.60;63.50;;;;;;6298483;22;20012;-92
2021/04/06 07:14:27;;;;;;;7.05;6.32;;;10.60;63.40;;;;;;6288904;22;19995;-92
2021/04/06 07:16:54;;;;;;;11.45;8.02;;;10.70;63.30;;;;;;6286836;22;20326;-92
2021/04/06 07:19:20;;;;;;;14.40;7.45;;;10.70;63.00;;;;;;6316371;22;19995;-92
2021/04/06 07:21:48;;;;;;;9.32;7.45;;;10.60;62.90;;;;;;6312824;22;20045;-92
2021/04/06 07:24:23;;;;;;;10.07;6.85;;;10.70;63.30;;;;;;6283465;22;20003;-92
2021/04/06 07:26:49;;;;;;;11.55;6.78;;;10.70;63.10;;;;;;6283937;22;20003;-91
2021/04/06 07:29:15;;;;;;;9.43;6.57;;;10.70;62.90;;;;;;6283618;22;20004;-92
2021/04/06 07:31:43;;;;;;;8.63;6.65;;;10.80;62.90;;;;;;6309827;22;20365;-92
2021/04/06 07:34:09;;;;;;;10.45;6.80;;;11.00;62.90;;;;;;6282248;22;20034;-91
2021/04/06 07:36:35;;;;;;;8.98;7.25;;;11.10;62.70;;;;;;6281447;22;20008;-91
2021/04/06 07:39:06;;;;;;;8.52;6.65;;;11.20;62.50;;;;;;6283961;22;20003;-92
2021/04/06 07:41:34;;;;;;;8.35;6.75;;;11.40;62.10;;;;;;6285440;22;20000;-92
2021/04/06 07:44:03;;;;;;;8.57;6.78;;;11.40;61.40;;;;;;6286261;22;20006;-91
2021/04/06 07:46:34;;;;;;;8.35;6.45;;;11.50;61.30;;;;;;6286452;22;20072;-91
2021/04/06 07:49:06;;;;;;;7.20;6.45;;;11.40;61.00;;;;;;6288898;22;20031;-91
2021/04/06 07:51:32;;;;;;;8.35;6.35;;;11.40;61.00;;;;;;6292891;22;20031;-90
2021/04/06 07:54:07;;;;;;;8.27;6.85;;;11.40;61.10;;;;;;6323460;22;19999;-90
2021/04/06 07:56:50;;;;;;;7.07;6.38;;;11.60;61.20;;;;;;6295537;22;20003;-90
2021/04/06 07:59:18;;;;;;;10.73;7.30;;;11.80;61.20;;;;;;6321146;22;20422;-90
2021/04/06 08:02:05;;;;;;;12.88;7.30;;;12.00;60.70;;;;;;6319968;22;20017;-90
2021/04/06 08:04:40;;;;;;;11.45;7.40;;;12.20;60.00;;;;;;6288929;22;20086;-91
2021/04/06 08:07:21;;;;;;;10.45;7.68;;;12.30;59.10;;;;;;6283541;22;20004;-91
2021/04/06 08:09:47;;;;;;;9.02;6.90;;;12.40;58.40;;;;;;6283618;22;19999;-90
2021/04/06 08:12:28;;;;;;;9.93;7.15;;;12.40;58.90;;;;;;6284599;22;20031;-91
2021/04/06 08:15:10;;;;;;;9.50;7.47;;;12.60;58.10;;;;;;6283757;22;20011;-90
2021/04/06 08:17:46;;;;;;;10.10;6.80;;;12.60;58.00;;;;;;6285818;22;20003;-92
2021/04/06 08:20:16;;;;;;;8.65;7.15;;;12.60;58.20;;;;;;6311146;22;20117;-91
2021/04/06 08:22:59;;;;;;;10.88;6.78;;;12.60;57.80;;;;;;6284029;22;20007;-91
2021/04/06 08:25:31;;;;;;;9.85;6.93;;;12.70;57.60;;;;;;6284151;22;20000;-91
2021/04/06 08:27:59;;;;;;;7.53;6.60;;;12.80;57.70;;;;;;6282680;22;20316;-91
2021/04/06 08:30:51;;;;;;;9.57;6.88;;;13.00;57.20;;;;;;6284897;22;20102;-91
2021/04/06 08:33:17;;;;;;;7.07;6.38;;;13.10;56.40;;;;;;6302318;22;20003;-91
2021/04/06 08:35:46;;;;;;;8.57;7.35;;;13.30;56.80;;;;;;6282681;22;20163;-91
2021/04/06 08:38:24;;;;;;;14.07;7.90;;;13.40;56.10;;;;;;6283314;22;20434;-89
2021/04/06 08:41:09;;;;;;;7.50;6.40;;;13.60;56.00;;;;;;6282947;22;20019;-93
2021/04/06 08:43:41;;;;;;;7.85;7.05;;;13.50;55.70;;;;;;6283225;22;20410;-91
2021/04/06 08:46:09;;;;;;;9.52;7.22;;;13.60;55.60;;;;;;6282851;22;20104;-91
2021/04/06 08:48:44;;;;;;;10.93;7.30;;;13.80;55.50;;;;;;6310904;22;19999;-91
2021/04/06 08:51:30;;;;;;;9.52;6.35;;;13.90;54.70;;;;;;6286120;22;20369;-91
2021/04/06 08:54:04;;;;;;;8.70;6.93;;;13.90;54.70;;;;;;6281301;22;20053;-90
2021/04/06 08:56:34;;;;;;;11.73;7.00;;;14.00;54.30;;;;;;6281982;22;20026;-89
2021/04/06 08:59:31;;;;;;;8.73;6.25;;;14.10;54.30;;;;;;6316972;22;19996;-90
2021/04/06 09:01:58;;;;;;;8.10;6.32;;;14.20;53.10;;;;;;6326415;22;19987;-89
2021/04/06 09:04:31;;;;;;;9.15;5.70;;;14.30;53.40;;;;;;6301498;22;20021;-90
2021/04/06 09:06:58;;;;;;;6.55;5.80;;;14.30;52.50;;;;;;6303324;22;20037;-90
2021/04/06 09:09:26;;;;;;;10.52;5.80;;;14.40;52.40;;;;;;6303201;22;20041;-91
2021/04/06 09:11:54;;;;;;;6.43;5.53;;;14.40;52.00;;;;;;6327377;22;20003;-88
2021/04/06 09:14:22;;;;;;;9.55;4.97;;;14.40;51.80;;;;;;6284353;22;20268;-90
2021/04/06 09:16:51;;;;;;;7.38;4.82;;;14.40;52.10;;;;;;6312857;22;20019;-89
2021/04/06 09:19:20;;;;;;;10.13;4.80;;;14.50;52.00;;;;;;6284146;22;20090;-90
2021/04/06 09:21:52;;;;;;;6.47;5.00;;;14.70;51.40;;;;;;6283850;22;19999;-89
2021/04/06 09:24:20;;;;;;;8.10;4.65;;;14.80;50.80;;;;;;6301274;22;19995;-89
2021/04/06 09:26:49;;;;;;;6.93;5.00;;;15.00;50.80;;;;;;6306004;22;20140;-89
2021/04/06 09:29:28;;;;;;;5.47;4.88;;;15.00;50.20;;;;;;6280094;22;19999;-90
2021/04/06 09:32:04;;;;;;;10.57;5.38;;;15.00;49.90;;;;;;6309915;22;20007;-89
2021/04/06 09:34:37;;;;;;;11.18;5.78;;;15.10;48.70;;;;;;6281966;22;20086;-89
2021/04/06 09:37:07;;;;;;;7.22;5.00;;;15.10;49.10;;;;;;6280425;22;20098;-90
2021/04/06 09:39:35;;;;;;;6.65;4.35;;;15.10;48.90;;;;;;6281248;22;20360;-89
2021/04/06 09:42:03;;;;;;;8.18;4.57;;;15.30;48.70;;;;;;6280665;22;20008;-90
2021/04/06 09:44:36;;;;;;;6.85;4.45;;;15.40;48.10;;;;;;6311224;22;20010;-91
2021/04/06 09:47:31;;;;;;;12.65;5.10;;;15.60;47.80;;;;;;6282833;22;20003;-91
2021/04/06 09:49:59;;;;;;;4.90;4.40;;;15.70;46.70;;;;;;6283088;22;20423;-90
2021/04/06 09:52:30;;;;;;;9.32;4.68;;;15.90;47.10;;;;;;6310083;22;20003;-90
2021/04/06 09:55:01;;;;;;;6.93;3.88;;;15.90;46.30;;;;;;6283060;22;20003;-91
2021/04/06 09:57:37;;;;;;;6.53;4.28;;;15.80;46.40;;;;;;6282860;22;20086;-91
2021/04/06 10:00:31;;;;;;;9.30;5.10;;;15.70;45.90;;;;;;6284184;22;20015;-89
2021/04/06 10:03:26;;;;;;;8.32;4.10;;;15.70;45.40;;;;;;6282059;22;20005;-90
2021/04/06 10:06:08;;;;;;;5.65;4.43;;;15.70;45.10;;;;;;6277734;22;20027;-90
2021/04/06 10:08:37;;;;;;;6.95;5.25;;;15.80;45.70;;;;;;6280377;22;20338;-90
2021/04/06 10:11:03;;;;;;;7.45;4.32;;;16.00;45.70;;;;;;6280846;22;20030;-91
2021/04/06 10:13:30;;;;;;;6.93;4.70;;;16.20;45.30;;;;;;6280578;22;20000;-91
2021/04/06 10:16:13;;;;;;;9.65;4.53;;;16.20;44.40;;;;;;6280310;22;20000;-92
2021/04/06 10:18:42;;;;;;;6.20;4.03;;;16.10;43.20;;;;;;6271738;22;20057;-92
2021/04/06 10:21:20;;;;;;;4.57;4.05;;;15.80;43.50;;;;;;6278170;22;20322;-92
2021/04/06 10:23:46;;;;;;;6.93;4.72;;;15.60;43.00;;;;;;6278482;22;20003;-93
2021/04/06 10:26:23;;;;;;;5.50;4.07;;;15.40;43.50;;;;;;6278229;22;19996;-91
2021/04/06 10:29:10;;;;;;;6.35;4.43;;;15.40;44.00;;;;;;6278956;22;19999;-92
2021/04/06 10:31:50;;;;;;;5.60;4.25;;;15.40;44.00;;;;;;6257369;22;19999;-90
2021/04/06 10:34:16;;;;;;;11.80;4.03;;;15.50;44.30;;;;;;6270804;22;20011;-90
2021/04/06 10:37:04;;;;;;;6.75;4.00;;;15.70;44.20;;;;;;6277859;22;20315;-89
2021/04/06 10:39:57;;;;;;;7.28;3.70;;;15.90;43.10;;;;;;6282725;22;20000;-91
2021/04/06 10:42:22;;;;;;;7.63;3.83;;;16.00;42.50;;;;;;6274177;22;20133;-90
2021/04/06 10:44:48;;;;;;;7.03;3.33;;;16.00;42.50;;;;;;6280170;22;20075;-88
2021/04/06 10:47:22;;;;;;;6.95;3.83;;;15.90;42.70;;;;;;6255089;22;20019;-89
2021/04/06 10:49:59;;;;;;;7.13;3.88;;;16.00;42.40;;;;;;6278436;22;20003;-89
2021/04/06 10:52:31;;;;;;;4.75;3.40;;;16.20;41.90;;;;;;6318481;22;19988;-89
2021/04/06 10:55:02;;;;;;;4.90;3.42;;;16.30;42.10;;;;;;6300700;22;19996;-89
2021/04/06 10:57:34;;;;;;;7.93;4.00;;;16.50;41.60;;;;;;6301133;22;20007;-90
2021/04/06 11:00:19;;;;;;;4.68;3.35;;;16.60;41.00;;;;;;6301416;22;19992;-88
2021/04/06 11:02:45;;;;;;;19.38;5.13;;;16.60;41.20;;;;;;6299926;22;19999;-89
2021/04/06 11:05:28;;;;;;;3.65;3.30;;;16.70;41.20;;;;;;6262323;22;20123;-91
2021/04/06 11:07:54;;;;;;;8.63;3.67;;;16.60;40.70;;;;;;6231340;23;20012;-93
2021/04/06 11:10:26;;;;;;;3.70;3.33;;;16.50;41.10;;;;;;6276489;22;20075;-91
2021/04/06 11:12:56;;;;;;;7.55;3.28;;;16.40;40.80;;;;;;6247394;23;20004;-91
2021/04/06 11:15:22;;;;;;;11.20;3.55;;;16.40;40.80;;;;;;6273038;22;20050;-91
2021/04/06 11:17:48;;;;;;;10.23;3.22;;;16.40;40.90;;;;;;6272067;22;20008;-90
2021/04/06 11:20:21;;;;;;;4.30;3.03;;;16.20;40.70;;;;;;6246675;23;20085;-91
2021/04/06 11:22:47;;;;;;;5.90;3.35;;;16.20;41.10;;;;;;6271725;22;20004;-90
2021/04/06 11:25:13;;;;;;;4.60;3.40;;;16.30;41.10;;;;;;6272590;22;20319;-90
2021/04/06 11:27:40;;;;;;;4.25;3.42;;;16.40;40.90;;;;;;6246473;23;20081;-91
2021/04/06 11:30:10;;;;;;;7.43;3.00;;;16.30;41.00;;;;;;6246551;23;20000;-90
2021/04/06 11:32:35;;;;;;;3.58;3.08;;;16.20;40.90;;;;;;6248931;23;20523;-90
2021/04/06 11:35:04;;;;;;;2.95;2.70;;;16.20;40.80;;;;;;6276805;22;20000;-91
2021/04/06 11:37:30;;;;;;;4.85;3.05;;;16.10;41.10;;;;;;6247923;23;20004;-89
2021/04/06 11:39:59;;;;;;;4.57;3.33;;;16.00;41.60;;;;;;6246287;22;20009;-90
2021/04/06 11:42:25;;;;;;;5.65;3.10;;;16.10;41.60;;;;;;6270759;22;20434;-90
2021/04/06 11:44:51;;;;;;;3.88;3.33;;;16.10;41.60;;;;;;6270646;22;20091;-90
2021/04/06 11:47:17;;;;;;;3.60;3.15;;;16.00;41.60;;;;;;6247691;22;20026;-90
2021/04/06 11:49:42;;;;;;;7.28;4.22;;;16.00;42.00;;;;;;6271185;22;20004;-92
2021/04/06 11:52:14;;;;;;;6.78;3.80;;;16.00;41.80;;;;;;6272081;22;20023;-89
2021/04/06 11:54:41;;;;;;;3.67;3.00;;;16.00;41.90;;;;;;6271110;22;20438;-89
2021/04/06 11:57:07;;;;;;;4.03;3.40;;;16.00;42.20;;;;;;6270953;22;20004;-90
2021/04/06 11:59:33;;;;;;;4.00;2.92;;;16.20;42.10;;;;;;6271979;22;20008;-89
2021/04/06 12:01:59;;;;;;;4.35;3.33;;;16.30;41.90;;;;;;6271966;22;20316;-90
2021/04/06 12:04:25;;;;;;;4.65;3.17;;;16.30;41.90;;;;;;6279960;22;20015;-89
2021/04/06 12:06:50;;;;;;;3.47;2.80;;;16.30;41.80;;;;;;6276532;22;20035;-89
2021/04/06 12:09:16;;;;;;;3.70;2.50;;;16.30;41.80;;;;;;6276833;22;20003;-90
2021/04/06 12:11:42;;;;;;;3.78;2.72;;;16.30;41.90;;;;;;6275708;22;19999;-90
2021/04/06 12:14:08;;;;;;;8.20;3.20;;;16.30;41.60;;;;;;6277118;22;20272;-89
2021/04/06 12:16:34;;;;;;;5.00;2.90;;;16.20;41.20;;;;;;6302687;22;20003;-89
2021/04/06 12:19:00;;;;;;;6.20;3.20;;;16.10;41.60;;;;;;6276369;22;20008;-90
2021/04/06 12:21:26;;;;;;;14.30;4.00;;;16.10;42.00;;;;;;6277418;22;20051;-89
2021/04/06 12:23:53;;;;;;;4.63;2.72;;;16.10;41.50;;;;;;6275824;22;20054;-90
2021/04/06 12:26:18;;;;;;;3.08;2.50;;;16.10;41.70;;;;;;6276688;22;20007;-90
2021/04/06 12:28:44;;;;;;;4.88;2.83;;;16.10;41.80;;;;;;6276129;22;20423;-89
2021/04/06 12:31:10;;;;;;;5.05;3.20;;;16.30;41.50;;;;;;6276876;22;19996;-90
2021/04/06 12:33:36;;;;;;;7.68;2.50;;;16.40;41.30;;;;;;6279062;22;19999;-90
2021/04/06 12:36:03;;;;;;;5.20;2.28;;;16.40;41.20;;;;;;6276433;22;19996;-89
2021/04/06 12:38:29;;;;;;;4.78;2.78;;;16.50;41.20;;;;;;6291825;22;20003;-89
2021/04/06 12:40:55;;;;;;;5.07;3.10;;;16.60;41.30;;;;;;6298238;22;20415;-88
2021/04/06 12:43:21;;;;;;;3.15;2.50;;;16.70;40.90;;;;;;6301493;22;19987;-88
2021/04/06 12:45:47;;;;;;;3.03;2.72;;;16.70;40.90;;;;;;6299719;22;20026;-89
2021/04/06 12:48:13;;;;;;;3.08;2.58;;;16.70;41.30;;;;;;6299808;22;20007;-87
2021/04/06 12:50:39;;;;;;;4.72;2.78;;;16.70;40.50;;;;;;6287072;22;20315;-90
2021/04/06 12:53:04;;;;;;;5.97;2.50;;;16.60;40.30;;;;;;6303239;22;20004;-89
2021/04/06 12:55:30;;;;;;;2.45;2.25;;;16.40;40.40;;;;;;6302368;22;20019;-90
2021/04/06 12:57:56;;;;;;;3.28;2.50;;;16.20;40.60;;;;;;6276976;22;20003;-90
2021/04/06 13:00:24;;;;;;;4.15;2.60;;;16.10;40.90;;;;;;6275609;22;20003;-90
2021/04/06 13:02:51;;;;;;;4.18;2.58;;;16.00;41.00;;;;;;6277069;22;19999;-91
2021/04/06 13:05:17;;;;;;;6.28;3.05;;;15.80;41.30;;;;;;6301686;22;20015;-90